Timeline UpdatesTrip UpdatesNews PostsPvt Posts♥♥Travel TipsAdmin PostsConv PostsFollowed PostsChat RequestsBlog PostsPNR Posts

Disclaimer
Search
 
 
Thu Oct 23, 2014 10:06:10 ISTHomeTrainsΣChainsAtlasPNRForumGalleryNewsFAQTripsMembersLoginFeedback
No Recent News for this Train
Other Trains in the News **new
Latest...
.
Wed Nov 20, 2013 (01:29PM)
⇐ Return Journey: Train# 11078

11077/Jhelum Express

Time-Table HAS CHANGED.
Sep 02 2014 (12:00AM)
Change Departure Station:
Change Arrival Station:
Post a Train Travel TipPost a Train Travel Tip **new
Post a Comment/Question/Picture/VideoPost a Comment/Question/Picture/Video
Inaugural Run
Sat Jan 01, 1977
Pantry/Catering
✓ Pantry Car Avbl
✓ Catering Avbl
Loco/Rake Reversals
DD/Daund Junction (7);
RSA - Rake Sharing
No RSA.
Rake/Coach Composition
From Pune-Daund Jn-->Loco, LDS, UR, A1, A2, B1, B2, B3, B4, B5, S1, PC, S2, S3 TO S10, UR, UR, MLTY; Daund Jn To Jammu Tawi--> Loco MLTY ,UR ,UR ,S10 To S2 ,PC ,S1,B5 -B1 ,A2 ,A1 ,UR ,LDS(DD-JAT)
Loco
PUNE-MMR: PUNE WDP-4D MMR-LDH : GZB/LDH WAP4 LDH -JAT :...
Read more...
LDH WDM3A (Single/Twins)
News    PNR    Forum    Time-Table    Availability    Fare Chart    Map    Arr/Dep History    Trips    Gallery    ΣChains    X/O    Timeline    
Travel Time: 1h 36m    0 halts    Distance: 113 km    Avg Speed: 70 km/hr
Type: Mail/Express
Zone: CR/Central
Departs @ 18:05 (Avg 1h 15m late)
Platform# 3
SMTWTFS
Mathura Junction/MTJ 
Arrives @ 19:41 (Avg 1h 9m late)
Platform# 2
SMTWTFS
Faridabad/FDB 

0 halts. 14 intermediate Stations between Mathura Junction and Faridabad

Show ALL intermediate Stations  Show Old Time-Table

#TrkCodeStation NameX/OArrivesAvgDepartsAvgHaltPFDay#KmSpeedElevZoneAddress
1/==/PUNEPune Junction (6)  -17:20+211-1457.666556mCRPune 411001, Maharashtra
2%==%URIUruli (2)  17:46+917:47+91m21-1428.858553mCRDist. Pune 412202, Maharashtra
3%==%DDDaund Junction (7)X18:35+318:50+1815m51-1382.055521mCRNew Daund Dist. Pune 413801, Maharashtra
4/--/ANGAhmadnagar (2)  20:22+1320:25+153m11-1297.868650mCRAhmednagar 414001, Maharashtra
5/--/BAPBelapur (2)X  21:24+1121:25+131m11-1230.855541mCRShrirampur, Maharashtra
6/--/KPGKopargaon (2)X  22:14+822:15+121m11-1186.239508mCRKopargaon 423601, Maharashtra
7/--/MMRManmad Junction (6)23:20+1223:30+2310m31-1143.966580mCRManmad 423104, Maharashtra
8/==/NGNNandgaon (3)O  00:03 23:53+2100:05 23:55+212m21-1118.667476mCRNandgaon, Maharashtra
9/==/CSNChalisgaon Junction (3)X  00:33+1600:35+172m22-1076.482352mCRChalisgaon 424101, Maharashtra
10/==/PCPachora Junction (4)X  01:08+1601:10+182m22-1031.6102264mCRPachora 424201, Maharashtra
11/==/JLJalgaon Junction (4)X  01:38+2701:40+282m32-983.872213mCRJalgaon 425001, Maharashtra
12/==/BSLBhusaval Junction (8)X  02:00+3302:10+3710m12-959.768208mCRBhusaval 425201, Maharashtra
13/==/BAUBurhanpur (2)  02:58+3103:00+312m22-905.249269mCRBurhanpur, Madhya Pradesh
14/==/KNWKhandwa Junction (5)X  04:35 04:25+504:40 04:30+85m42-836.485310mCRKhandwa, Madhya Pradesh
15/==/CAERChhanera (2)  05:02+1905:04+192m22-791.087283mWCRChhanera, Madhya Pradesh
16/==/HDHarda (3)X  05:47+1905:49+192m22-728.761289mWCRHarda, Madhya Pradesh
17/==/TBNTimarni (2)X  06:03+1906:05+192m22-714.674308mWCRTimarni, Madhya Pradesh
18/==/BPFBanapura (2)  06:28+1906:30+192m12-686.450314mWCRBanapura, Madhya Pradesh
19/==/ETItarsi Junction (7)X  07:10+1007:15+175m22-652.960329mWCRItarsi 461111, Madhya Pradesh
20/==/HBDHoshangabad (2)X  07:33+2107:35+212m12-634.864308mWCRHoshangabad, Madhya Pradesh
21/==/HBJBhopal HabibGanj (5)X  08:38+3408:40+342m32-567.515496mWCRHabibGanj, Madhya Pradesh
22/==/BPLBhopal Junction (6)O  09:05+2409:10+265m22-561.287497mWCRBhopal, Madhya Pradesh
23/==/BHSVidisha (3)X  09:47+3109:49+312m12-507.781 WCRVidisha, Madhya Pradesh
24/==/BAQGanj Basoda (4)X  10:18+3010:20+302m22-468.450 WCRVidisha, Madhya Pradesh
25/==/BINABina Junction (5)  11:15+2011:20+195m22-422.658414mWCRJn Pt - KATNI/GUNA/ BPL/JHS, Madhya Pradesh
26/==/DUADhaura (3)X  11:56+2511:58+262m--2-388.081407mNCRDhaura Tanda, Madhya Pradesh
27/==/LARLalitpur (3)  12:19+2712:21+282m32-359.786373mNCRLalitpur, Uttar Pradesh
28/==/BABBabina (3)X  13:04 13:06+2913:06 13:09+332 3m22-294.946285mNCRBabina, Uttar Pradesh
29/==/JHSJhansi Junction (7)X  13:40 13:42+3013:50 13:52+3410m52-269.476259mNCRJhansi, Uttar Pradesh
30/==/DBADabra (3)X  14:36+4614:38+462m22-214.069 NCRDabra(District-Gwalior), Madhya Pradesh
31/==/GWLGwalior Junction (4)  15:15+5115:20+525m22-171.793214mNCRGwalior, Madhya Pradesh
32/==/MRAMorena (3)  15:45+1:0115:47+1:022m22-133.170176mNCRMorena, Madhya Pradesh
33/==/DHODholpur Junction (3)  16:10+1:0516:12+1:062m12-106.357177mNCRDholpur, Rajasthan
34/==/AGCAgra Cantt. (6)X  17:07+1:1017:12+1:115m32-53.734174mNCRAgra, Uttar Pradesh
35/==/RKMRaja Ki Mandi (4)  17:19+1:1417:21+1:142m12-49.776170mNCRAgra, Uttar Pradesh
36/==/MTJMathura Junction (10)»X  18:04 18:00+1:1518:07 18:05+1:153 5m320.071179mNCRMathura, Uttar Pradesh
37/==/FDBFaridabad (4)•X  19:41+1:0919:43+1:092m22113.232206mNRold Faridabad, Haryana
38/==/NZMDelhi Hazrat Nizamuddin (7)  20:16 20:22+1:0420:18 20:24+1:042m22134.021209mNRNew Delhi 110013, Delhi NCT
39/==/NDLSNew Delhi (16)X  20:45+1:0821:05+1:0920m62141.315215mNRNew Delhi, Delhi NCT
40/==/SZMDelhi Sabzi Mandi (2)  21:21+1:2021:23+1:202m12145.563220mNRGulabi Bagh, Delhi NCT
41/==/NURNarela (2)X  21:47 21:45+1:2521:49 21:46+1:272 1m22168.768222mNRNarela, Delhi NCT
42/==/SNPSonipat (3)  22:06 22:01+1:2822:08 22:03+1:302m22185.864225mNRSonipat, Haryana
43/==/GNUGanaurX  22:24 22:18+1:3322:26 22:20+1:352m--2201.757222mNRGanaur, Haryana
44/==/SMKSamalkha (3)22:40 22:33+1:3422:41 22:35+1:381 2m--2214.051229mNRSamalkha, Haryana
45/==/PNPPanipat Junction (5)  23:02 22:55+1:3223:04 22:57+1:322m32231.042235mNRPanipat, Haryana
46/==/GRAGharaunda (2)23:21+1:2723:22+1:281m--2247.966244mNRGharaunda, Haryana
47/==/KUNKarnal (3)O  23:38+1:2523:40+1:262m22265.448253mNRKarnal, Haryana
48/==/TRRTaraori (2)  23:54 23:55+1:2323:56+1:242 1m12277.563255mNRTaraori, Haryana
49/==/KKDEKurukshetra Junction (3)  00:29 00:16+1:1300:31 00:18+1:132m13298.541260mNRKurukshetra, Haryana
50/==/UMBAmbala Cantt. Junction (7)X  01:20+1:0601:32+1:0412m33340.635278mNRAmbala 133001, Haryana
51/==/UBCAmbala City (3)X  01:45+1:0501:46+1:061m33348.182273mNRNH-1, Haryana
52/==/RPJRajpura Junction (3)XO  02:02 02:01+1:0602:03+1:071 2m13368.651272mNRNH-1, Punjab
53/==/SIRSirhind Junction (3)X  02:32+5802:34+592m13393.577271mNRSirhind, Punjab
54/==/KNNKhanna (3)X  02:48+5702:49+581m13411.454269mNRNH 1, Punjab
55/==/LDHLudhiana Junction (7)X03:35 03:37+1:0903:45 03:47+1:3510m33454.258246mNRLudhiana 141001, Punjab
56/==/PGWPhagwara Junction (3)X  04:22 04:24+1:3604:24 04:26+1:362m23489.870245mNRPhagwara, Punjab
57/==/JRCJalandhar Cantt. Junction (3)  04:40+1:3904:45+1:395m13506.155239mNRNear Rama Mandi, Punjab
58/--/TDOTanda Urmar (3)  05:26 05:31+1:3405:28 05:33+1:342m13548.461239mNRUrmar Tanda, Punjab
59/--/DZADasuya (2)  05:43 05:48+1:3505:45 05:50+1:362m23563.850251mNRDasuya distt. hoshiarpur, Punjab
60/--/MEXMukerian (3)  06:03 06:08+1:3606:05 06:10+1:362m23578.848257mNRMukerian distt. hosiharpur, Punjab
61/--/PTKCPathankot Cantt (3)  07:00+1:2707:05+1:285m23618.642328mNRPathankot By Pass Ph:0186-2251594, Punjab
62/--/KTHUKathua (2)  07:38+1:3407:40+1:352m13641.864396mNRdistt. kathua, Jammu and Kashmir
63/--/HRNRHira Nagar (2)  08:06 08:07+1:4308:08 08:09+1:432m--3670.699380mNRHiranagar, Jammu and Kashmir
64/--/SMBXSamba (2)X  08:18+1:5108:20+1:552m23685.425365mNRDist. Samba, Jammu and Kashmir
65/--/VJPJVijaypur Jammu (2)XO  08:47+1:4508:49+1:462m13696.818353mNRdistt. samba, Jammu and Kashmir
66/--/JATJammu Tawi (3)  10:00+1:05-13718.0-337mNRJammu 180002, Jammu and Kashmir
Scroll to Top
Scroll to Bottom